createdAt,value
2018-12-08T00:01:10.670Z,0.00
2018-12-08T00:03:39.387Z,0.00
2018-12-08T00:06:08.051Z,0.00
2018-12-08T00:08:36.799Z,0.00
2018-12-08T00:11:05.445Z,0.00
2018-12-08T00:13:34.280Z,0.03
2018-12-08T00:16:02.917Z,0.00
2018-12-08T00:18:31.581Z,0.00
2018-12-08T00:21:00.210Z,0.00
2018-12-08T00:23:29.082Z,0.00
2018-12-08T00:25:58.237Z,0.53
2018-12-08T00:28:26.873Z,0.00
2018-12-08T00:31:06.523Z,0.00
2018-12-08T00:33:35.171Z,0.00
2018-12-08T00:36:03.949Z,0.00
2018-12-08T00:38:32.558Z,0.00
2018-12-08T00:41:01.221Z,0.00
2018-12-08T00:43:29.895Z,0.00
2018-12-08T00:45:58.541Z,0.23
2018-12-08T00:48:27.247Z,0.00
2018-12-08T00:50:55.900Z,0.00
2018-12-08T00:53:24.600Z,0.00
2018-12-08T00:55:53.275Z,0.00
2018-12-08T00:58:21.929Z,0.00
2018-12-08T01:00:50.601Z,0.00
2018-12-08T01:03:19.282Z,0.20
2018-12-08T01:05:47.951Z,0.00
2018-12-08T01:08:16.586Z,0.00
2018-12-08T01:10:45.246Z,0.00
2018-12-08T01:13:13.895Z,0.00
2018-12-08T01:15:42.572Z,0.87
2018-12-08T01:18:11.225Z,0.00
2018-12-08T01:20:39.908Z,0.00
2018-12-08T01:23:08.603Z,0.00
2018-12-08T01:25:37.364Z,0.00
2018-12-08T01:28:06.003Z,1.43
2018-12-08T01:30:34.652Z,1.83
2018-12-08T01:33:03.346Z,1.90
2018-12-08T01:35:32.057Z,1.80
2018-12-08T01:38:00.696Z,1.27
2018-12-08T01:40:29.351Z,2.57
2018-12-08T01:42:58.016Z,1.70
2018-12-08T01:45:26.841Z,1.87
2018-12-08T01:47:55.503Z,2.23
2018-12-08T01:50:24.258Z,2.20
2018-12-08T01:52:53.018Z,1.50
2018-12-08T01:55:21.680Z,1.67
2018-12-08T01:57:50.335Z,1.80
2018-12-08T02:00:19.055Z,2.43
2018-12-08T02:02:47.752Z,1.60
2018-12-08T02:05:16.504Z,2.07
2018-12-08T02:07:45.139Z,1.80
2018-12-08T02:10:13.870Z,1.43
2018-12-08T02:12:42.588Z,1.63
2018-12-08T02:15:11.465Z,2.03
2018-12-08T02:17:40.108Z,1.67
2018-12-08T02:20:08.785Z,1.20
2018-12-08T02:22:37.468Z,1.30
2018-12-08T02:25:06.932Z,1.67
2018-12-08T02:27:35.665Z,1.47
2018-12-08T02:30:05.096Z,2.13
2018-12-08T02:32:33.783Z,1.67
2018-12-08T02:35:02.447Z,1.57
2018-12-08T02:37:31.143Z,1.57
2018-12-08T02:39:59.793Z,1.90
2018-12-08T02:42:28.654Z,0.97
2018-12-08T02:44:57.463Z,1.67
2018-12-08T02:47:26.127Z,1.43
2018-12-08T02:49:54.800Z,2.13
2018-12-08T02:52:23.437Z,2.40
2018-12-08T02:54:52.224Z,1.30
2018-12-08T02:57:20.905Z,2.33
2018-12-08T02:59:49.698Z,1.87
2018-12-08T03:02:18.406Z,1.83
2018-12-08T03:04:47.043Z,1.80
2018-12-08T03:07:15.728Z,1.30
2018-12-08T03:09:44.436Z,1.53
2018-12-08T03:12:13.094Z,1.40
2018-12-08T03:14:41.732Z,2.27
2018-12-08T03:17:10.346Z,2.20
2018-12-08T03:19:39.010Z,2.70
2018-12-08T03:22:07.644Z,1.37
2018-12-08T03:24:36.262Z,1.60
2018-12-08T03:27:05.035Z,2.20
2018-12-08T03:29:33.687Z,1.43
2018-12-08T03:32:02.382Z,1.43
2018-12-08T03:34:30.976Z,1.83
2018-12-08T03:36:59.612Z,1.53
2018-12-08T03:39:28.310Z,1.80
2018-12-08T03:41:56.950Z,1.43
2018-12-08T03:44:25.564Z,2.20
2018-12-08T03:46:54.179Z,1.50
2018-12-08T03:49:22.780Z,1.67
2018-12-08T03:51:51.475Z,2.57
2018-12-08T03:54:20.138Z,2.03
2018-12-08T03:56:48.820Z,1.93
2018-12-08T03:59:17.614Z,1.90
2018-12-08T04:01:46.447Z,1.77
2018-12-08T04:04:15.189Z,1.73
2018-12-08T04:06:43.914Z,1.60
2018-12-08T04:09:12.640Z,1.80
2018-12-08T04:11:41.285Z,1.60
2018-12-08T04:14:10.023Z,1.30
2018-12-08T04:16:38.754Z,2.30
2018-12-08T04:19:07.418Z,1.87
2018-12-08T04:21:36.138Z,1.93
2018-12-08T04:24:04.946Z,2.40
2018-12-08T04:26:33.635Z,1.60
2018-12-08T04:29:02.290Z,1.87
2018-12-08T04:31:30.979Z,1.60
2018-12-08T04:33:59.635Z,2.60
2018-12-08T04:36:28.382Z,2.37
2018-12-08T04:38:57.021Z,1.80
2018-12-08T04:41:26.281Z,1.80
2018-12-08T04:43:54.999Z,1.97
2018-12-08T04:46:23.693Z,2.63
2018-12-08T04:48:52.365Z,2.87
2018-12-08T04:51:21.062Z,2.60
2018-12-08T04:53:49.675Z,2.80
2018-12-08T04:56:18.432Z,2.83
2018-12-08T04:58:47.188Z,2.93
2018-12-08T05:01:15.898Z,3.80
2018-12-08T05:03:44.550Z,3.20
2018-12-08T05:06:13.203Z,3.50
2018-12-08T05:08:41.928Z,3.47
2018-12-08T05:11:10.538Z,4.00
2018-12-08T05:13:39.204Z,4.47
2018-12-08T05:16:07.787Z,3.30
2018-12-08T05:18:36.412Z,3.90
2018-12-08T05:21:05.231Z,3.47
2018-12-08T05:23:33.858Z,3.50
2018-12-08T05:26:02.530Z,3.07
2018-12-08T05:28:31.225Z,3.40
2018-12-08T05:30:59.909Z,2.43
2018-12-08T05:33:28.615Z,3.53
2018-12-08T05:35:57.289Z,2.37
2018-12-08T05:38:25.918Z,3.27
2018-12-08T05:40:54.595Z,3.23
2018-12-08T05:43:23.358Z,3.23
2018-12-08T05:45:51.974Z,2.97
2018-12-08T05:48:20.623Z,3.13
2018-12-08T05:50:49.279Z,3.50
2018-12-08T05:53:17.944Z,2.57
2018-12-08T05:55:47.135Z,3.30
2018-12-08T05:58:15.943Z,3.00
2018-12-08T06:00:44.605Z,3.70
2018-12-08T06:03:13.273Z,3.40
2018-12-08T06:05:41.987Z,4.13
2018-12-08T06:08:10.613Z,3.63
2018-12-08T06:10:39.275Z,3.10
2018-12-08T06:13:07.953Z,3.40
2018-12-08T06:15:36.567Z,3.03
2018-12-08T06:18:05.229Z,4.67
2018-12-08T06:20:33.935Z,3.50
2018-12-08T06:23:02.571Z,4.23
2018-12-08T06:25:33.918Z,3.97
2018-12-08T06:28:09.583Z,4.40
2018-12-08T06:30:38.790Z,4.17
2018-12-08T06:33:07.485Z,4.00
2018-12-08T06:35:36.284Z,4.27
2018-12-08T06:38:05.131Z,3.50
2018-12-08T06:40:33.831Z,3.47
2018-12-08T06:43:02.564Z,3.87
2018-12-08T06:45:31.245Z,3.40
2018-12-08T06:47:59.890Z,3.33
2018-12-08T06:50:28.540Z,4.63
2018-12-08T06:52:57.236Z,2.10
2018-12-08T06:55:25.886Z,2.77
2018-12-08T06:57:54.496Z,2.73
2018-12-08T07:00:23.150Z,1.73
2018-12-08T07:02:51.855Z,2.37
2018-12-08T07:05:20.607Z,2.30
2018-12-08T07:07:49.242Z,2.27
2018-12-08T07:10:17.930Z,2.97
2018-12-08T07:12:46.592Z,3.17
2018-12-08T07:15:15.295Z,2.40
2018-12-08T07:17:43.941Z,2.10
2018-12-08T07:20:12.785Z,3.80
2018-12-08T07:22:41.517Z,3.13
2018-12-08T07:25:09.815Z,2.90
2018-12-08T07:27:38.588Z,2.73
2018-12-08T07:30:10.918Z,3.07
2018-12-08T07:32:39.602Z,4.13
2018-12-08T07:35:08.910Z,2.87
2018-12-08T07:37:37.565Z,2.73
2018-12-08T07:40:08.448Z,3.20
2018-12-08T07:42:37.322Z,3.87
2018-12-08T07:45:07.987Z,3.33
2018-12-08T07:47:36.638Z,3.90
2018-12-08T07:50:07.869Z,3.13
2018-12-08T07:52:36.723Z,4.77
2018-12-08T07:55:06.750Z,2.70
2018-12-08T07:57:35.488Z,3.97
2018-12-08T08:00:06.301Z,3.00
2018-12-08T08:02:34.961Z,3.13
2018-12-08T08:05:03.785Z,4.33
2018-12-08T08:07:32.496Z,3.37
2018-12-08T08:10:01.282Z,3.83
2018-12-08T08:12:30.027Z,3.77
2018-12-08T08:14:58.674Z,3.50
2018-12-08T08:17:27.368Z,3.10
2018-12-08T08:19:56.000Z,3.50
2018-12-08T08:22:24.697Z,3.43
2018-12-08T08:24:53.375Z,3.67
2018-12-08T08:27:22.027Z,3.47
2018-12-08T08:29:50.752Z,4.00
2018-12-08T08:32:19.424Z,3.77
2018-12-08T08:34:48.072Z,3.70
2018-12-08T08:37:16.741Z,3.57
2018-12-08T08:39:45.387Z,3.60
2018-12-08T08:42:14.068Z,3.30
2018-12-08T08:44:42.720Z,3.80
2018-12-08T08:47:11.443Z,3.20
2018-12-08T08:49:40.082Z,3.60
2018-12-08T08:52:08.832Z,3.63
2018-12-08T08:54:37.524Z,2.33
2018-12-08T08:57:06.215Z,2.90
2018-12-08T08:59:34.931Z,3.00
2018-12-08T09:02:03.584Z,3.33
2018-12-08T09:04:32.270Z,2.57
2018-12-08T09:07:00.983Z,3.33
2018-12-08T09:09:29.676Z,3.27
2018-12-08T09:11:58.378Z,3.60
2018-12-08T09:14:27.048Z,3.47
2018-12-08T09:16:55.709Z,3.00
2018-12-08T09:19:24.414Z,3.13
2018-12-08T09:21:53.118Z,2.90
2018-12-08T09:24:21.908Z,2.80
2018-12-08T09:26:50.554Z,2.30
2018-12-08T09:29:19.343Z,2.67
2018-12-08T09:31:47.990Z,2.63
2018-12-08T09:34:16.636Z,3.00
2018-12-08T09:36:45.365Z,1.57
2018-12-08T09:39:14.014Z,2.40
2018-12-08T09:41:42.763Z,2.33
2018-12-08T09:44:11.435Z,2.70
2018-12-08T09:46:40.150Z,2.30
2018-12-08T09:49:08.825Z,2.50
2018-12-08T09:51:37.701Z,2.70
2018-12-08T09:54:06.430Z,1.77
2018-12-08T09:56:35.132Z,1.67
2018-12-08T09:59:03.881Z,2.53
2018-12-08T10:01:32.553Z,2.23
2018-12-08T10:04:01.253Z,2.27
2018-12-08T10:06:29.898Z,2.00
2018-12-08T10:08:58.545Z,2.37
2018-12-08T10:11:27.261Z,2.80
2018-12-08T10:13:55.945Z,2.53
2018-12-08T10:16:24.636Z,2.70
2018-12-08T10:18:53.564Z,2.90
2018-12-08T10:21:22.242Z,2.87
2018-12-08T10:23:50.980Z,2.97
2018-12-08T10:26:19.638Z,3.50
2018-12-08T10:28:48.330Z,3.17
2018-12-08T10:31:17.010Z,2.67
2018-12-08T10:33:45.739Z,2.30
2018-12-08T10:36:14.434Z,3.63
2018-12-08T10:38:43.143Z,2.67
2018-12-08T10:41:11.945Z,3.47
2018-12-08T10:43:40.688Z,2.50
2018-12-08T10:46:09.411Z,2.90
2018-12-08T10:48:38.203Z,3.20
2018-12-08T10:51:06.952Z,4.67
2018-12-08T10:53:35.776Z,3.20
2018-12-08T10:56:04.454Z,4.20
2018-12-08T10:58:33.150Z,2.77
2018-12-08T11:01:09.540Z,3.10
2018-12-08T11:03:47.708Z,3.20
2018-12-08T11:06:17.088Z,3.13
2018-12-08T11:08:46.100Z,3.87
2018-12-08T11:11:14.878Z,4.50
2018-12-08T11:14:17.461Z,3.20
2018-12-08T11:16:46.139Z,3.27
2018-12-08T11:19:14.904Z,2.10
2018-12-08T11:21:43.929Z,3.30
2018-12-08T11:24:12.650Z,3.30
2018-12-08T11:26:41.296Z,3.17
2018-12-08T11:29:09.987Z,2.60
2018-12-08T11:31:38.649Z,2.80
2018-12-08T11:34:07.425Z,3.20
2018-12-08T11:36:49.542Z,2.77
2018-12-08T11:39:13.494Z,2.93
2018-12-08T11:41:42.437Z,2.93
2018-12-08T11:44:11.611Z,2.13
2018-12-08T11:46:41.905Z,2.83
2018-12-08T11:49:10.708Z,2.70
2018-12-08T11:51:39.427Z,3.43
2018-12-08T11:54:08.569Z,3.10
2018-12-08T11:56:37.381Z,3.00
2018-12-08T11:59:06.102Z,3.30
2018-12-08T12:01:34.809Z,3.10
2018-12-08T12:04:03.511Z,2.77
2018-12-08T12:06:32.218Z,4.20
2018-12-08T12:09:00.936Z,2.67
2018-12-08T12:11:29.611Z,2.53
2018-12-08T12:13:58.305Z,3.17
2018-12-08T12:16:26.970Z,3.47
2018-12-08T12:18:55.656Z,3.17
2018-12-08T12:21:24.623Z,2.10
2018-12-08T12:23:53.320Z,2.67
2018-12-08T12:26:22.017Z,3.37
2018-12-08T12:28:50.788Z,2.60
2018-12-08T12:31:19.522Z,3.17
2018-12-08T12:33:48.205Z,2.33
2018-12-08T12:36:16.930Z,3.13
2018-12-08T12:38:45.672Z,3.00
2018-12-08T12:41:14.400Z,2.73
2018-12-08T12:43:43.139Z,2.83
2018-12-08T12:46:11.865Z,2.73
2018-12-08T12:48:40.607Z,3.67
2018-12-08T12:51:09.260Z,3.13
2018-12-08T12:53:38.071Z,2.97
2018-12-08T12:56:06.875Z,2.30
2018-12-08T12:58:35.621Z,3.53
2018-12-08T13:01:04.434Z,2.60
2018-12-08T13:03:33.169Z,3.67
2018-12-08T13:06:01.893Z,4.43
2018-12-08T13:08:30.612Z,2.70
2018-12-08T13:10:59.347Z,2.50
2018-12-08T13:13:28.146Z,3.47
2018-12-08T13:15:56.819Z,2.90
2018-12-08T13:18:25.588Z,3.20
2018-12-08T13:20:54.292Z,3.80
2018-12-08T13:23:22.999Z,2.33
2018-12-08T13:25:51.761Z,3.33
2018-12-08T13:28:20.453Z,4.30
2018-12-08T13:30:49.099Z,2.37
2018-12-08T13:33:17.867Z,3.43
2018-12-08T13:35:54.507Z,3.03
2018-12-08T13:38:23.483Z,3.17
2018-12-08T13:40:52.405Z,2.87
2018-12-08T13:43:21.106Z,4.33
2018-12-08T13:45:49.839Z,2.77
2018-12-08T13:48:20.477Z,3.33
2018-12-08T13:50:49.505Z,2.90
2018-12-08T13:53:18.243Z,3.37
2018-12-08T13:55:46.947Z,2.83
2018-12-08T13:58:15.721Z,2.73
2018-12-08T14:00:44.578Z,2.87
2018-12-08T14:03:13.336Z,2.33
2018-12-08T14:05:41.997Z,2.43
2018-12-08T14:08:10.662Z,2.90
2018-12-08T14:10:39.352Z,2.87
2018-12-08T14:13:08.741Z,3.23
2018-12-08T14:15:37.504Z,3.60
2018-12-08T14:18:06.248Z,4.23
2018-12-08T14:20:35.269Z,3.17
2018-12-08T14:23:04.163Z,3.63
2018-12-08T14:25:32.822Z,3.83
2018-12-08T14:28:01.514Z,2.50
2018-12-08T14:30:30.255Z,3.90
2018-12-08T14:32:58.960Z,2.73
2018-12-08T14:35:27.622Z,3.23
2018-12-08T14:37:56.313Z,3.67
2018-12-08T14:40:25.026Z,3.10
2018-12-08T14:42:53.704Z,2.40
2018-12-08T14:45:22.441Z,3.70
2018-12-08T14:47:51.124Z,3.27
2018-12-08T14:50:19.817Z,4.33
2018-12-08T14:52:48.656Z,2.70
2018-12-08T14:55:17.337Z,2.83
2018-12-08T14:57:46.107Z,4.33
2018-12-08T15:00:15.137Z,3.07
2018-12-08T15:02:43.849Z,2.67
2018-12-08T15:05:12.708Z,2.97
2018-12-08T15:07:41.411Z,3.10
2018-12-08T15:10:11.916Z,2.63
2018-12-08T15:12:40.673Z,3.40
2018-12-08T15:15:10.548Z,3.43
2018-12-08T15:17:39.496Z,3.17
2018-12-08T15:20:09.581Z,2.60
2018-12-08T15:22:38.400Z,2.37
2018-12-08T15:25:09.285Z,2.50
2018-12-08T15:27:38.059Z,2.80
2018-12-08T15:30:08.766Z,2.27
2018-12-08T15:32:37.580Z,3.23
2018-12-08T15:35:09.286Z,2.58
2018-12-08T15:37:38.352Z,2.80
2018-12-08T15:40:08.655Z,2.97
2018-12-08T15:42:37.399Z,3.57
2018-12-08T15:45:09.105Z,2.60
2018-12-08T15:47:37.893Z,2.20
2018-12-08T15:50:08.121Z,2.23
2018-12-08T15:52:37.107Z,2.97
2018-12-08T15:55:06.796Z,2.75
2018-12-08T15:57:35.578Z,2.57
2018-12-08T16:00:05.572Z,2.10
2018-12-08T16:02:34.294Z,3.43
2018-12-08T16:05:03.059Z,2.43
2018-12-08T16:07:31.759Z,2.73
2018-12-08T16:10:00.471Z,2.17
2018-12-08T16:12:29.226Z,3.23
2018-12-08T16:14:57.961Z,3.87
2018-12-08T16:17:26.618Z,2.70
2018-12-08T16:19:55.311Z,2.07
2018-12-08T16:22:24.018Z,2.70
2018-12-08T16:24:52.716Z,2.80
2018-12-08T16:27:21.414Z,2.80
2018-12-08T16:29:50.231Z,2.50
2018-12-08T16:32:18.989Z,2.20
2018-12-08T16:34:47.795Z,2.70
2018-12-08T16:37:16.479Z,3.07
2018-12-08T16:39:45.201Z,3.00
2018-12-08T16:42:13.914Z,2.93
2018-12-08T16:44:42.595Z,2.70
2018-12-08T16:47:11.286Z,2.40
2018-12-08T16:49:40.038Z,2.10
2018-12-08T16:52:08.760Z,2.70
2018-12-08T16:54:37.479Z,2.77
2018-12-08T16:57:06.288Z,1.80
2018-12-08T16:59:34.995Z,1.53
2018-12-08T17:02:03.772Z,2.53
2018-12-08T17:04:32.443Z,1.97
2018-12-08T17:07:01.204Z,1.43
2018-12-08T17:09:29.882Z,2.67
2018-12-08T17:11:58.573Z,2.00
2018-12-08T17:14:27.334Z,1.60
2018-12-08T17:16:55.987Z,1.97
2018-12-08T17:19:24.693Z,2.43
2018-12-08T17:21:53.486Z,2.23
2018-12-08T17:24:22.315Z,2.33
2018-12-08T17:26:51.036Z,2.33
2018-12-08T17:29:19.795Z,2.27
2018-12-08T17:31:48.520Z,2.40
2018-12-08T17:34:17.243Z,2.07
2018-12-08T17:36:46.031Z,2.03
2018-12-08T17:39:15.064Z,2.03
2018-12-08T17:41:43.789Z,2.47
2018-12-08T17:44:12.524Z,2.20
2018-12-08T17:46:41.196Z,2.67
2018-12-08T17:49:10.015Z,2.73
2018-12-08T17:51:38.700Z,3.17
2018-12-08T17:54:07.402Z,2.67
2018-12-08T17:56:36.102Z,2.87
2018-12-08T17:59:04.828Z,3.83
2018-12-08T18:01:33.679Z,2.40
2018-12-08T18:04:02.315Z,3.37
2018-12-08T18:06:31.038Z,3.83
2018-12-08T18:08:59.833Z,3.23
2018-12-08T18:11:28.736Z,3.20
2018-12-08T18:13:57.349Z,2.53
2018-12-08T18:16:26.065Z,2.77
2018-12-08T18:18:54.781Z,3.00
2018-12-08T18:21:23.531Z,4.00
2018-12-08T18:23:52.317Z,2.40
2018-12-08T18:26:21.042Z,2.73
2018-12-08T18:28:49.736Z,3.10
2018-12-08T18:31:18.408Z,2.80
2018-12-08T18:33:47.133Z,3.60
2018-12-08T18:36:15.879Z,3.67
2018-12-08T18:38:44.585Z,3.00
2018-12-08T18:41:13.298Z,3.03
2018-12-08T18:43:48.725Z,3.87
2018-12-08T18:46:17.500Z,3.50
2018-12-08T18:48:46.215Z,2.97
2018-12-08T18:51:15.004Z,3.57
2018-12-08T18:53:43.692Z,3.50
2018-12-08T18:56:12.447Z,3.93
2018-12-08T18:58:42.087Z,2.50
2018-12-08T19:01:11.959Z,3.07
2018-12-08T19:03:40.697Z,2.80
2018-12-08T19:06:09.414Z,3.73
2018-12-08T19:08:38.143Z,3.77
2018-12-08T19:11:06.859Z,3.77
2018-12-08T19:13:35.583Z,2.93
2018-12-08T19:16:04.497Z,3.40
2018-12-08T19:18:33.258Z,3.97
2018-12-08T19:21:01.951Z,3.53
2018-12-08T19:23:30.630Z,3.67
2018-12-08T19:25:59.364Z,3.80
2018-12-08T19:28:28.068Z,2.73
2018-12-08T19:30:56.713Z,5.03
2018-12-08T19:33:25.411Z,3.63
2018-12-08T19:35:54.146Z,3.43
2018-12-08T19:38:23.196Z,4.13
2018-12-08T19:40:51.882Z,4.17
2018-12-08T19:43:24.791Z,3.50
2018-12-08T19:45:53.472Z,4.07
2018-12-08T19:48:22.089Z,3.43
2018-12-08T19:50:50.805Z,4.90
2018-12-08T19:53:19.499Z,3.97
2018-12-08T19:55:48.241Z,4.10
2018-12-08T19:58:16.896Z,5.40
2018-12-08T20:00:45.731Z,4.57
2018-12-08T20:03:14.428Z,3.67
2018-12-08T20:05:43.132Z,4.40
2018-12-08T20:08:11.857Z,5.67
2018-12-08T20:10:40.576Z,4.43
2018-12-08T20:13:09.703Z,4.17
2018-12-08T20:15:38.470Z,4.57
2018-12-08T20:18:07.163Z,4.37
2018-12-08T20:20:35.928Z,5.07
2018-12-08T20:23:04.679Z,4.60
2018-12-08T20:25:33.408Z,3.87
2018-12-08T20:28:02.057Z,4.10
2018-12-08T20:30:30.828Z,4.27
2018-12-08T20:32:59.492Z,4.93
2018-12-08T20:35:28.225Z,4.07
2018-12-08T20:37:56.900Z,3.97
2018-12-08T20:40:25.639Z,3.27
2018-12-08T20:42:54.384Z,3.87
2018-12-08T20:45:23.155Z,3.57
2018-12-08T20:47:51.893Z,4.90
2018-12-08T20:50:20.613Z,5.30
2018-12-08T20:52:49.325Z,4.43
2018-12-08T20:55:18.038Z,4.70
2018-12-08T20:57:46.716Z,4.30
2018-12-08T21:00:15.441Z,5.17
2018-12-08T21:02:45.056Z,4.97
2018-12-08T21:05:13.793Z,4.23
2018-12-08T21:07:42.560Z,4.77
2018-12-08T21:10:11.247Z,4.80
2018-12-08T21:12:39.897Z,4.40
2018-12-08T21:15:08.639Z,4.87
2018-12-08T21:17:37.339Z,4.30
2018-12-08T21:20:07.607Z,4.28
2018-12-08T21:22:36.822Z,3.27
2018-12-08T21:25:07.954Z,3.70
2018-12-08T21:27:36.632Z,3.70
2018-12-08T21:30:05.984Z,4.23
2018-12-08T21:32:34.695Z,4.50
2018-12-08T21:35:04.585Z,4.33
2018-12-08T21:37:33.254Z,4.70
2018-12-08T21:40:01.911Z,4.50
2018-12-08T21:42:30.600Z,4.97
2018-12-08T21:44:59.271Z,5.20
2018-12-08T21:47:27.997Z,4.83
2018-12-08T21:49:56.700Z,5.20
2018-12-08T21:52:25.691Z,4.57
2018-12-08T21:54:54.353Z,3.83
2018-12-08T21:57:23.130Z,4.53
2018-12-08T22:00:12.308Z,3.67
2018-12-08T22:02:49.964Z,3.53
2018-12-08T22:05:18.716Z,4.50
2018-12-08T22:07:47.458Z,4.73
2018-12-08T22:10:16.177Z,4.50
2018-12-08T22:12:45.175Z,4.53
2018-12-08T22:15:16.605Z,5.37
2018-12-08T22:17:46.085Z,5.07
2018-12-08T22:20:14.841Z,5.80
2018-12-08T22:22:43.535Z,5.80
2018-12-08T22:25:12.251Z,5.47
2018-12-08T22:27:40.990Z,4.37
2018-12-08T22:30:09.817Z,2.87
2018-12-08T22:32:38.598Z,2.17
2018-12-08T22:35:07.497Z,2.17
2018-12-08T22:37:36.514Z,1.67
2018-12-08T22:40:05.816Z,1.80
2018-12-08T22:42:34.531Z,1.63
2018-12-08T22:45:03.273Z,1.37
2018-12-08T22:47:31.973Z,1.20
2018-12-08T22:50:00.709Z,0.50
2018-12-08T22:52:29.400Z,0.40
2018-12-08T22:54:58.237Z,0.60
2018-12-08T22:57:26.918Z,0.30
2018-12-08T22:59:55.609Z,0.30
2018-12-08T23:02:24.272Z,0.20
2018-12-08T23:04:52.975Z,0.77
2018-12-08T23:07:21.722Z,0.80
2018-12-08T23:09:50.520Z,0.30
2018-12-08T23:12:19.168Z,0.40
2018-12-08T23:14:47.810Z,0.40
2018-12-08T23:17:16.600Z,0.50
2018-12-08T23:19:45.309Z,0.17
2018-12-08T23:22:13.965Z,0.40
2018-12-08T23:24:49.352Z,0.23
2018-12-08T23:27:18.080Z,0.30
2018-12-08T23:29:46.811Z,0.40
2018-12-08T23:32:15.497Z,1.40
2018-12-08T23:34:44.318Z,0.60
2018-12-08T23:37:13.046Z,0.80
2018-12-08T23:39:41.673Z,1.50
2018-12-08T23:42:10.363Z,1.53
2018-12-08T23:44:39.084Z,1.80
2018-12-08T23:47:07.802Z,2.03
2018-12-08T23:49:36.487Z,1.83
2018-12-08T23:52:05.277Z,2.27
2018-12-08T23:54:33.960Z,1.50
2018-12-08T23:57:02.776Z,1.70
2018-12-08T23:59:32.471Z,3.67
